Data for 02/07/2016

Time Sea-Level Adjusted Pressure Absolute Pressure Temperature Relative Humidity Dew Point   
(mb) (inHg) (mb) (inHg) (C) (F) (%) (C) (F)
00:05 1025 30.27 854 25.22 -0.1 31.7 49 -9.7 14.5
00:10 1025 30.27 855 25.25 -0 32 49 -9.6 14.8
00:15 1026 30.3 855 25.25 0.1 32.2 48 -9.6 14.7
00:20 1026 30.3 855 25.25 0.2 32.3 49 -9.4 15
00:25 1026 30.3 855 25.25 0.2 32.3 49 -9.4 15.2
00:30 1026 30.3 855 25.25 0.1 32.2 50 -9.1 15.5
00:35 1026 30.3 855 25.25 -0.1 31.8 51 -9.2 15.5
00:40 1026 30.3 855 25.25 -0.4 31.3 50 -9.5 14.9
00:45 1026 30.3 855 25.25 -0.5 31.1 51 -9.5 14.9
00:50 1026 30.3 856 25.28 -0.4 31.2 52 -9.1 15.6
00:55 1026 30.3 856 25.28 -0.3 31.4 51 -9.2 15.4
01:00 1027 30.33 856 25.28 -0.3 31.4 52 -9.1 15.6
01:05 1027 30.33 856 25.28 -0.3 31.4 51 -9.2 15.4
01:10 1027 30.33 856 25.28 -0.5 31.2 52 -9.1 15.6
01:15 1027 30.33 856 25.28 -0.5 31.1 52 -9.2 15.5
01:20 1027 30.33 856 25.28 -0.5 31 54 -8.8 16.2
01:25 1027 30.33 856 25.28 -0.5 31.1 52 -9.1 15.6
01:30 1027 30.33 856 25.28 -0.4 31.2 53 -8.8 16.1
01:35 1027 30.33 856 25.28 -0.4 31.3 52 -9.1 15.6
01:40 1027 30.33 856 25.28 -0.4 31.3 53 -8.8 16.1
01:45 1027 30.33 856 25.28 -0.3 31.4 52 -9.1 15.7
01:50 1027 30.33 856 25.28 -0.3 31.5 51 -9.1 15.6
01:55 1027 30.33 856 25.28 -0.3 31.5 52 -9 15.8
02:00 1027 30.33 856 25.28 -0.4 31.3 52 -9 15.8
02:05 1027 30.33 856 25.28 -0.5 31.1 54 -8.7 16.3
02:10 1027 30.33 856 25.28 -0.5 31 53 -8.9 16
02:15 1027 30.33 856 25.28 -0.6 30.9 54 -8.7 16.3
02:20 1027 30.33 856 25.28 -0.6 30.9 54 -8.8 16.2
02:25 1027 30.33 856 25.28 -0.7 30.8 54 -8.9 15.9
02:30 1026 30.3 856 25.28 -0.8 30.6 54 -9 15.8
02:35 1026 30.3 856 25.28 -0.8 30.5 55 -8.8 16.1
02:40 1026 30.3 856 25.28 -0.9 30.4 55 -8.9 16
02:45 1026 30.3 856 25.28 -0.9 30.3 55 -8.9 16
02:50 1027 30.33 856 25.28 -1 30.3 55 -9 15.8
02:55 1027 30.33 856 25.28 -1 30.2 54 -9.1 15.6
03:00 1027 30.33 856 25.28 -1.1 30 54 -9.2 15.5
03:05 1027 30.33 856 25.28 -1.1 29.9 55 -9.2 15.5
03:10 1027 30.33 856 25.28 -1.3 29.6 55 -9.3 15.3
03:15 1027 30.33 856 25.28 -1.6 29.1 55 -9.4 15.1
03:20 1027 30.33 856 25.28 -1.9 28.6 56 -9.6 14.8
03:25 1027 30.33 856 25.28 -2.1 28.3 57 -9.5 14.9
03:30 1027 30.33 856 25.28 -2.1 28.3 57 -9.5 14.9
03:35 1027 30.33 856 25.28 -2.1 28.3 56 -9.6 14.6
03:40 1027 30.33 857 25.31 -2.3 27.9 57 -9.6 14.7
03:45 1027 30.33 857 25.31 -2.5 27.5 57 -9.8 14.3
03:50 1027 30.33 857 25.31 -2.5 27.5 56 -10 13.9
03:55 1027 30.33 857 25.31 -2.6 27.4 56 -10.1 13.8
04:00 1027 30.33 857 25.31 -2.6 27.3 57 -10 13.9
04:05 1028 30.36 857 25.31 -2.7 27.2 57 -10.1 13.9
04:10 1028 30.36 857 25.31 -2.7 27.1 57 -10 13.9
04:15 1028 30.36 857 25.31 -2.7 27.2 57 -10 14
04:20 1028 30.36 857 25.31 -2.6 27.4 57 -10 14
04:25 1028 30.36 857 25.31 -2.6 27.4 57 -9.9 14.2
04:30 1028 30.36 857 25.31 -2.5 27.4 57 -9.9 14.2
04:35 1028 30.36 857 25.31 -2.7 27.2 57 -10 13.9
04:40 1028 30.36 857 25.31 -2.7 27.2 57 -10 13.9
04:45 1028 30.36 857 25.31 -2.7 27.2 57 -10.1 13.8
04:50 1028 30.36 857 25.31 -2.6 27.2 57 -10 13.9
04:55 1028 30.36 857 25.31 -2.7 27.2 57 -10 14
05:00 1028 30.36 857 25.31 -2.8 26.9 58 -10 13.9
05:05 1028 30.36 857 25.31 -2.9 26.7 58 -10 13.9
05:10 1028 30.36 857 25.31 -3 26.7 58 -10 14
05:15 1028 30.36 857 25.31 -3.1 26.4 59 -10 13.9
05:20 1028 30.36 857 25.31 -3.2 26.2 60 -10 14
05:25 1028 30.36 857 25.31 -3.4 25.9 60 -10 14
05:30 1028 30.36 857 25.31 -3.4 25.8 60 -10 14
05:35 1028 30.36 857 25.31 -3.4 25.8 60 -10.1 13.9
05:40 1028 30.36 857 25.31 -3.6 25.6 61 -10.1 13.8
05:45 1028 30.36 857 25.31 -4 24.8 62 -10.2 13.6
05:50 1028 30.36 858 25.34 -4.3 24.3 62 -10.4 13.3
05:55 1028 30.36 858 25.34 -4.1 24.7 62 -10.3 13.4
06:00 1029 30.39 858 25.34 -3.9 25.1 61 -10.3 13.5
06:05 1029 30.39 858 25.34 -3.7 25.4 60 -10.3 13.5
06:10 1029 30.39 858 25.34 -3.5 25.6 59 -10.4 13.4
06:15 1029 30.39 858 25.34 -3.5 25.7 59 -10.3 13.4
06:20 1029 30.39 858 25.34 -3.3 26.1 58 -10.4 13.2
06:25 1029 30.39 858 25.34 -3.2 26.2 58 -10.4 13.2
06:30 1029 30.39 858 25.34 -3.4 25.9 58 -10.4 13.2
06:35 1029 30.39 858 25.34 -3.4 25.9 58 -10.4 13.2
06:40 1029 30.39 858 25.34 -3.4 25.8 58 -10.4 13.2
06:45 1029 30.39 858 25.34 -3.4 25.9 58 -10.4 13.3
06:50 1029 30.39 858 25.34 -3.4 25.9 58 -10.4 13.3
06:55 1029 30.39 858 25.34 -3.4 25.9 58 -10.4 13.2
07:00 1029 30.39 858 25.34 -3.4 25.9 58 -10.5 13.2
07:05 1029 30.39 858 25.34 -3.4 25.9 58 -10.4 13.2
07:10 1029 30.39 858 25.34 -3.4 25.9 58 -10.5 13.1
07:15 1029 30.39 858 25.34 -3.4 25.9 58 -10.5 13.1
07:20 1029 30.39 859 25.37 -3.6 25.6 58 -10.6 13
07:25 1029 30.39 859 25.37 -3.6 25.6 59 -10.5 13.1
07:30 1029 30.39 859 25.37 -3.6 25.5 59 -10.5 13.1
07:35 1029 30.39 858 25.34 -3.7 25.4 59 -10.5 13.2
07:40 1029 30.39 858 25.34 -3.9 25 61 -10.4 13.3
07:45 1029 30.39 859 25.37 -4 24.7 61 -10.6 13
07:50 1029 30.39 859 25.37 -3.9 24.9 60 -10.6 13
07:55 1029 30.39 859 25.37 -3.7 25.3 60 -10.5 13.2
08:00 1029 30.39 859 25.37 -3.9 25 60 -10.5 13.1
08:05 1030 30.42 859 25.37 -4.3 24.3 61 -10.8 12.6
08:10 1030 30.42 859 25.37 -4.5 23.9 61 -10.9 12.4
08:15 1030 30.42 859 25.37 -4.4 24 61 -10.8 12.6
08:20 1030 30.42 859 25.37 -4.5 23.9 62 -10.8 12.5
08:25 1030 30.42 859 25.37 -4.5 24 61 -10.9 12.4
08:30 1030 30.42 859 25.37 -4.5 23.9 62 -10.7 12.7
08:35 1030 30.42 859 25.37 -4.6 23.7 62 -10.9 12.5
08:40 1030 30.42 859 25.37 -4.7 23.6 62 -10.9 12.4
08:45 1030 30.42 859 25.37 -4.9 23.1 64 -10.8 12.5
08:50 1030 30.42 859 25.37 -5.3 22.4 65 -10.8 12.5
08:55 1030 30.42 859 25.37 -5.3 22.4 64 -11.1 12.1
09:00 1030 30.42 859 25.37 -5.2 22.7 64 -10.9 12.4
09:05 1030 30.42 859 25.37 -5.3 22.5 64 -11.1 12
09:10 1030 30.42 860 25.4 -5 23 62 -11.1 12
09:15 1030 30.42 860 25.4 -4.9 23.1 62 -11.1 12
09:20 1030 30.42 860 25.4 -4.8 23.4 62 -11.1 12
09:25 1031 30.45 860 25.4 -4.7 23.6 61 -11.2 11.9
09:30 1031 30.45 860 25.4 -4.1 24.7 58 -11.2 11.9
09:35 1031 30.45 860 25.4 -3.7 25.4 57 -10.9 12.3
09:40 1031 30.45 860 25.4 -3.5 25.8 57 -10.9 12.5
09:45 1031 30.45 860 25.4 -3.3 26 56 -11 12.2
09:50 1031 30.45 860 25.4 -3.1 26.5 55 -10.8 12.6
09:55 1031 30.45 860 25.4 -2.9 26.8 55 -10.8 12.5
10:00 1031 30.45 860 25.4 -3 26.6 55 -10.7 12.7
10:05 1031 30.45 860 25.4 -2.9 26.7 55 -10.7 12.8
10:10 1031 30.45 860 25.4 -2.6 27.2 54 -10.8 12.6
10:15 1031 30.45 860 25.4 -2.5 27.5 54 -10.5 13.1
10:20 1031 30.45 860 25.4 -2.3 27.8 53 -10.7 12.8
10:25 1031 30.45 860 25.4 -2.5 27.5 54 -10.6 12.8
10:30 1031 30.45 861 25.43 -2.5 27.6 53 -10.8 12.6
10:35 1031 30.45 861 25.43 -2 28.4 51 -10.8 12.6
10:40 1031 30.45 861 25.43 -1.2 29.9 49 -10.5 13
10:45 1031 30.45 861 25.43 -0.8 30.6 48 -10.5 13.1
10:50 1032 30.47 861 25.43 -0.3 31.5 46 -10.6 12.9
10:55 1032 30.47 861 25.43 0.1 32.2 45 -10.4 13.4
11:00 1032 30.47 861 25.43 -0 32 45 -10.5 13.1
11:05 1032 30.47 861 25.43 0.2 32.4 44 -10.7 12.8
11:10 1032 30.47 861 25.43 0.6 33.2 42 -10.8 12.6
11:15 1032 30.47 861 25.43 0.8 33.4 43 -10.6 13
11:20 1032 30.47 861 25.43 1.2 34.2 42 -10.4 13.2
11:25 1032 30.47 861 25.43 1.5 34.7 41 -10.5 13
11:30 1032 30.47 861 25.43 1.5 34.7 40 -10.7 12.7
11:35 1032 30.47 861 25.43 1.9 35.4 38 -10.9 12.4
11:40 1032 30.47 861 25.43 1.7 35.1 40 -10.6 12.9
11:45 1032 30.47 861 25.43 1.2 34.2 40 -11 12.2
11:50 1032 30.47 861 25.43 1.2 34.1 40 -11 12.2
11:55 1032 30.47 861 25.43 1.4 34.6 40 -10.7 12.7
12:00 1032 30.47 861 25.43 2.1 35.9 38 -10.8 12.6
12:05 1032 30.47 861 25.43 2.1 35.8 39 -10.3 13.4
12:10 1032 30.47 861 25.43 2.4 36.3 37 -11 12.2
12:15 1032 30.47 861 25.43 2.6 36.7 37 -10.6 12.8
12:20 1032 30.47 861 25.43 2.5 36.5 39 -10.2 13.7
12:25 1032 30.47 861 25.43 2.5 36.4 37 -10.7 12.7
12:30 1032 30.47 861 25.43 2.5 36.4 38 -10.6 12.9
12:35 1032 30.47 861 25.43 2.4 36.4 38 -10.6 13
12:40 1032 30.47 861 25.43 2.7 36.9 36 -10.8 12.6
12:45 1032 30.47 861 25.43 2.7 36.8 37 -10.7 12.7
12:50 1032 30.47 861 25.43 2.5 36.6 38 -10.6 13
12:55 1031 30.45 861 25.43 2.5 36.5 38 -10.5 13
13:00 1031 30.45 861 25.43 2.6 36.6 37 -10.6 13
13:05 1031 30.45 861 25.43 2.6 36.6 38 -10.4 13.2
13:10 1032 30.47 861 25.43 2.5 36.6 38 -10.5 13.1
13:15 1032 30.47 861 25.43 2.9 37.2 36 -10.7 12.8
13:20 1031 30.45 861 25.43 3 37.5 37 -10.3 13.4
13:25 1032 30.47 861 25.43 2.6 36.7 39 -10.1 13.8
13:30 1032 30.47 861 25.43 3 37.5 36 -10.8 12.6
13:35 1032 30.47 861 25.43 3.9 39.1 33 -10.8 12.5
13:40 1032 30.47 861 25.43 4 39.2 33 -10.7 12.7
13:45 1032 30.47 861 25.43 3.8 38.8 33 -11 12.2
13:50 1032 30.47 861 25.43 3.8 38.9 33 -11.2 11.9
13:55 1032 30.47 861 25.43 3.7 38.6 33 -11 12.2
14:00 1032 30.47 861 25.43 3.9 39 33 -10.8 12.5
14:05 1031 30.45 861 25.43 4.1 39.3 33 -10.9 12.3
14:10 1031 30.45 861 25.43 3.8 38.8 34 -10.7 12.7
14:15 1031 30.45 861 25.43 4.3 39.7 31 -11.2 11.8
14:20 1031 30.45 861 25.43 4.4 39.9 33 -10.5 13.1
14:25 1031 30.45 861 25.43 3.9 39.1 34 -10.7 12.8
14:30 1031 30.45 860 25.4 3.5 38.4 33 -11.2 11.8
14:35 1031 30.45 860 25.4 3.5 38.2 36 -10.1 13.8
14:40 1031 30.45 860 25.4 3.5 38.4 35 -10.4 13.3
14:45 1031 30.45 860 25.4 3.9 38.9 35 -10.2 13.7
14:50 1031 30.45 860 25.4 4.2 39.5 33 -10.6 12.9
14:55 1031 30.45 860 25.4 4.2 39.5 34 -10.3 13.4
15:00 1031 30.45 860 25.4 3.8 38.9 36 -9.9 14.2
15:05 1031 30.45 860 25.4 3.7 38.7 34 -10.8 12.5
15:10 1031 30.45 860 25.4 3.8 38.8 35 -10.2 13.7
15:15 1031 30.45 860 25.4 4.3 39.8 33 -10.7 12.8
15:20 1031 30.45 860 25.4 4.8 40.6 31 -10.9 12.4
15:25 1031 30.45 860 25.4 4.2 39.5 34 -10.2 13.7
15:30 1031 30.45 860 25.4 4.1 39.3 33 -10.7 12.7
15:35 1031 30.45 860 25.4 4.7 40.4 33 -10.2 13.6
15:40 1031 30.45 860 25.4 4.8 40.6 31 -11.2 11.9
15:45 1031 30.45 860 25.4 5.1 41.1 30 -11 12.2
15:50 1031 30.45 860 25.4 4.8 40.6 31 -11.1 12
15:55 1031 30.45 860 25.4 4.8 40.6 29 -11.7 11
16:00 1031 30.45 860 25.4 4.4 40 31 -11.2 11.8
16:05 1031 30.45 860 25.4 4.7 40.5 30 -11.4 11.5
16:10 1031 30.45 860 25.4 4.6 40.2 31 -11.3 11.6
16:15 1031 30.45 860 25.4 4.4 40 31 -11.4 11.5
16:20 1031 30.45 860 25.4 4.5 40.1 32 -11 12.2
16:25 1031 30.45 860 25.4 4.5 40 31 -11.3 11.7
16:30 1031 30.45 860 25.4 4.7 40.5 30 -11.5 11.4
16:35 1031 30.45 860 25.4 4.7 40.4 29 -12 10.5
16:40 1031 30.45 860 25.4 4.7 40.4 31 -11.2 11.8
16:45 1031 30.45 860 25.4 4.9 40.8 30 -11.2 11.8
16:50 1031 30.45 860 25.4 4.8 40.6 30 -11.6 11.1
16:55 1031 30.45 860 25.4 4.8 40.6 28 -12.3 9.9
17:00 1031 30.45 860 25.4 4.6 40.2 29 -11.9 10.5
17:05 1031 30.45 860 25.4 5.1 41.2 27 -12.6 9.3
17:10 1031 30.45 860 25.4 5.5 41.9 26 -12.8 9
17:15 1031 30.45 860 25.4 5.4 41.7 27 -12 10.4
17:20 1031 30.45 860 25.4 5.2 41.4 27 -12.1 10.2
17:25 1031 30.45 860 25.4 5.2 41.4 28 -12 10.4
17:30 1031 30.45 860 25.4 5.3 41.6 27 -12.2 10
17:35 1031 30.45 860 25.4 5.4 41.7 26 -12.5 9.5
17:40 1031 30.45 860 25.4 5.4 41.8 27 -11.9 10.5
17:45 1031 30.45 860 25.4 4.6 40.3 31 -11.2 11.8
17:50 1031 30.45 860 25.4 3.8 38.9 30 -12.2 10.1
17:55 1031 30.45 860 25.4 3.6 38.5 31 -11.9 10.5
18:00 1031 30.45 860 25.4 3.5 38.3 30 -12.6 9.4
18:05 1031 30.45 860 25.4 3.8 38.8 29 -12.8 9
18:10 1031 30.45 861 25.43 4.2 39.6 28 -12.7 9.1
18:15 1031 30.45 861 25.43 4.2 39.5 28 -13 8.6
18:20 1031 30.45 861 25.43 3.9 39.1 30 -12 10.5
18:25 1031 30.45 861 25.43 3.4 38.2 31 -12.1 10.2
18:30 1031 30.45 861 25.43 3.2 37.8 29 -13.1 8.5
18:35 1031 30.45 861 25.43 2.9 37.2 30 -13.3 8.1
18:40 1031 30.45 861 25.43 2.9 37.2 29 -13.3 8
18:45 1031 30.45 861 25.43 3 37.4 31 -12.8 9
18:50 1031 30.45 861 25.43 3.1 37.5 31 -12.4 9.6
18:55 1031 30.45 861 25.43 2.9 37.2 30 -12.9 8.8
19:00 1031 30.45 861 25.43 2.6 36.6 35 -11.4 11.5
19:05 1031 30.45 861 25.43 2.3 36.1 37 -10.9 12.3
19:10 1032 30.47 861 25.43 2.2 36 39 -10.3 13.5
19:15 1031 30.45 861 25.43 2 35.7 37 -11 12.1
19:20 1032 30.47 861 25.43 1.9 35.3 38 -11.1 12.1
19:25 1032 30.47 861 25.43 1.9 35.4 36 -11.7 11
19:30 1032 30.47 861 25.43 2.1 35.9 34 -12.3 9.8
19:35 1032 30.47 861 25.43 2.5 36.5 34 -11.8 10.8
19:40 1032 30.47 861 25.43 2.5 36.6 42 -9.1 15.6
19:45 1032 30.47 861 25.43 2 35.7 42 -9.6 14.8
19:50 1032 30.47 861 25.43 1.7 35.1 42 -9.7 14.5
19:55 1032 30.47 861 25.43 1.9 35.5 43 -9.3 15.3
20:00 1032 30.47 861 25.43 1.8 35.3 43 -9.5 15
20:05 1032 30.47 861 25.43 1.3 34.3 42 -10.2 13.7
20:10 1032 30.47 861 25.43 1.6 34.9 42 -9.9 14.2
20:15 1032 30.47 861 25.43 1.7 35.1 41 -10.2 13.6
20:20 1032 30.47 861 25.43 1.5 34.7 42 -9.9 14.1
20:25 1032 30.47 861 25.43 1.3 34.4 40 -11 12.2
20:30 1032 30.47 861 25.43 1.5 34.8 36 -12 10.5
20:35 1032 30.47 861 25.43 1.8 35.2 42 -9.8 14.4
20:40 1032 30.47 861 25.43 1.5 34.6 43 -9.8 14.4
20:45 1032 30.47 861 25.43 1.5 34.6 44 -9.6 14.7
20:50 1032 30.47 861 25.43 1.5 34.7 44 -9.5 15
20:55 1032 30.47 861 25.43 1.6 34.8 41 -10.3 13.5
21:00 1032 30.47 861 25.43 1.8 35.2 40 -10.4 13.2
21:05 1032 30.47 861 25.43 1.9 35.5 46 -8.7 16.4
21:10 1032 30.47 861 25.43 1.7 35 42 -10 14
21:15 1032 30.47 861 25.43 1.7 35.1 40 -10.6 13
21:20 1032 30.47 861 25.43 1.9 35.3 42 -9.7 14.6
21:25 1032 30.47 861 25.43 1.7 35.1 42 -9.8 14.3
21:30 1032 30.47 861 25.43 1.6 35 41 -10.2 13.6
21:35 1032 30.47 861 25.43 1.7 35.1 44 -9.4 15.2
21:40 1032 30.47 861 25.43 1.5 34.8 39 -11.1 12
21:45 1032 30.47 861 25.43 1.8 35.2 37 -11.3 11.7
21:50 1032 30.47 861 25.43 2.1 35.7 36 -11.5 11.2
21:55 1032 30.47 861 25.43 2.3 36.2 39 -10.4 13.3
22:00 1032 30.47 861 25.43 2.2 36 45 -8.5 16.7
22:05 1032 30.47 861 25.43 1.8 35.2 45 -8.9 16
22:10 1032 30.47 861 25.43 1.2 34.1 46 -9.2 15.5
22:15 1032 30.47 861 25.43 1.2 34.2 46 -9.2 15.4
22:20 1032 30.47 861 25.43 1.2 34.2 46 -9.2 15.5
22:25 1032 30.47 861 25.43 1.5 34.7 40 -10.6 12.9
22:30 1032 30.47 861 25.43 1.8 35.3 40 -10.3 13.5
22:35 1032 30.47 861 25.43 2.1 35.7 35 -11.9 10.6
22:40 1032 30.47 861 25.43 2.5 36.5 37 -10.9 12.3
22:45 1032 30.47 861 25.43 2.6 36.6 39 -10.2 13.7
22:50 1032 30.47 861 25.43 2.6 36.6 38 -10.3 13.4
22:55 1032 30.47 861 25.43 2.7 36.8 34 -11.6 11.2
23:00 1032 30.47 861 25.43 3 37.3 33 -11.6 11.1
23:05 1032 30.47 861 25.43 3.3 37.9 39 -9.5 14.9
23:10 1032 30.47 861 25.43 3.1 37.5 43 -8.2 17.2
23:15 1032 30.47 861 25.43 2.4 36.4 46 -8 17.7
23:20 1032 30.47 861 25.43 2.2 36 39 -10.3 13.5
23:25 1032 30.47 861 25.43 2.4 36.2 44 -8.7 16.3
23:30 1032 30.47 861 25.43 2.1 35.8 44 -9 15.7
23:35 1032 30.47 861 25.43 2 35.7 49 -7.6 18.3
23:40 1032 30.47 861 25.43 1.9 35.4 43 -9.5 14.9
23:45 1032 30.47 861 25.43 2 35.5 44 -9.1 15.5
23:50 1032 30.47 861 25.43 2 35.6 45 -8.6 16.5
23:55 1032 30.47 861 25.43 2.1 35.8 38 -10.8 12.5
24:00 1032 30.47 861 25.43 2.5 36.5 42 -9.1 15.7